| Date | Time | Temp. (oF) | Dew Point (oF) | Rel. Hum. (%) | Press. (in.) | Wind Dir. | Wind Speed (mph) | Hourly Rainfall (in.) |
|
|---|---|---|---|---|---|---|---|---|---|
| 1 | 07/28 | 00:00 | 66 | 60 | 82 | 30.30 | ESE | 2 | 0.00 |
| 2 | 07/27 | 23:00 | 68 | 58 | 73 | 30.29 | E | 0 | 0.00 |
| 3 | 07/27 | 22:00 | 70 | 58 | 67 | 30.27 | E | 0 | 0.00 |
| 4 | 07/27 | 21:00 | 72 | 56 | 58 | 30.25 | SSE | 0 | 0.00 |
| 5 | 07/27 | 20:00 | 75 | 55 | 51 | 30.24 | SE | 1 | 0.00 |
| 6 | 07/27 | 19:00 | 77 | 55 | 47 | 30.22 | ESE | 4 | 0.00 |
| 7 | 07/27 | 18:00 | 79 | 52 | 40 | 30.21 | SSE | 2 | 0.00 |
| 8 | 07/27 | 17:00 | 80 | 52 | 39 | 30.22 | ESE | 1 | 0.00 |
| 9 | 07/27 | 16:00 | 79 | 53 | 41 | 30.24 | NW | 5 | 0.00 |
| 10 | 07/27 | 15:00 | 78 | 54 | 44 | 30.25 | WNW | 4 | 0.00 |
| 11 | 07/27 | 14:00 | 77 | 52 | 43 | 30.28 | NNW | 4 | 0.00 |
| 12 | 07/27 | 13:00 | 75 | 53 | 47 | 30.29 | S | 5 | 0.00 |
| 13 | 07/27 | 12:00 | 74 | 52 | 47 | 30.30 | ESE | 3 | 0.00 |
| 14 | 07/27 | 11:00 | 71 | 50 | 49 | 30.31 | NE | 9 | 0.00 |
| 15 | 07/27 | 10:00 | 68 | 49 | 52 | 30.30 | NNE | 3 | 0.00 |
| 16 | 07/27 | 09:00 | 67 | 51 | 57 | 30.31 | NNE | 6 | 0.00 |
| 17 | 07/27 | 08:00 | 65 | 52 | 64 | 30.30 | NNE | 3 | 0.00 |
| 18 | 07/27 | 07:00 | 63 | 54 | 73 | 30.28 | NE | 0 | 0.00 |
| 19 | 07/27 | 06:00 | 62 | 52 | 71 | 30.26 | NNE | 4 | 0.00 |
| 20 | 07/27 | 05:00 | 64 | 53 | 68 | 30.23 | NNE | 1 | 0.00 |
| 21 | 07/27 | 04:00 | 65 | 53 | 67 | 30.22 | N | 1 | 0.00 |
| 22 | 07/27 | 03:00 | 66 | 53 | 64 | 30.20 | N | 3 | 0.00 |
| 23 | 07/27 | 02:00 | 67 | 56 | 69 | 30.18 | NNE | 4 | 0.00 |
| 24 | 07/27 | 01:00 | 68 | 59 | 74 | 30.17 | NNE | 7 | 0.00 |